Time;durP1;ratioP1;P1;durP2;ratioP2;P2;SDS_P1;SDS_P2;PMS_P1;PMS_P2;Temp;Humidity;BMP_temperature;BMP_pressure;BME280_temperature;BME280_humidity;BME280_pressure;Samples;Min_cycle;Max_cycle;Signal;HPM_P1;HPM_P2
2022/04/12 00:01:16;;;;;;;3.45;1.77;;;;;;;7.60;56.20;100954.97;10374874;28;20187;-77
2022/04/12 00:06:16;;;;;;;4.65;2.03;;;;;;;7.54;57.13;100952.00;10382485;28;20037;-77
2022/04/12 00:11:17;;;;;;;6.63;2.20;;;;;;;7.49;57.00;100939.59;10377209;28;20068;-77
2022/04/12 00:16:17;;;;;;;5.68;1.95;;;;;;;7.42;57.40;100942.63;10358845;28;20034;-77
2022/04/12 00:21:18;;;;;;;5.78;2.05;;;;;;;7.33;58.97;100936.84;10363621;28;20116;-77
2022/04/12 00:26:18;;;;;;;7.38;2.40;;;;;;;7.38;58.67;100934.53;10418426;28;20025;-77
2022/04/12 00:31:19;;;;;;;5.72;2.33;;;;;;;7.28;58.85;100930.47;10391616;28;20057;-78
2022/04/12 00:36:21;;;;;;;5.60;2.72;;;;;;;7.17;59.95;100920.28;10380200;28;20055;-77
2022/04/12 00:41:23;;;;;;;6.22;2.72;;;;;;;7.14;60.95;100919.19;10404934;28;20469;-77
2022/04/12 00:46:24;;;;;;;5.13;2.50;;;;;;;7.15;59.00;100918.38;10397710;28;20053;-77
2022/04/12 00:51:25;;;;;;;8.88;4.25;;;;;;;7.11;61.45;100911.19;10378619;28;20370;-77
2022/04/12 00:56:25;;;;;;;3.58;2.22;;;;;;;7.00;61.88;100906.19;10396534;28;20065;-77
2022/04/12 01:01:26;;;;;;;5.25;2.97;;;;;;;6.93;60.84;100895.34;10355464;28;20091;-77
2022/04/12 01:06:26;;;;;;;5.80;3.00;;;;;;;6.97;62.03;100874.78;10370704;28;20030;-77
2022/04/12 01:11:27;;;;;;;10.38;4.10;;;;;;;6.91;61.82;100882.22;10385909;28;20026;-77
2022/04/12 01:16:28;;;;;;;5.10;2.97;;;;;;;6.87;62.44;100877.63;10368000;28;20087;-77
2022/04/12 01:21:36;;;;;;;7.55;3.30;;;;;;;6.67;63.05;100892.88;10339353;28;20026;-77
2022/04/12 01:26:36;;;;;;;6.57;2.35;;;;;;;6.68;63.35;100905.06;10342263;28;20038;-77
2022/04/12 01:31:37;;;;;;;5.25;2.53;;;;;;;6.52;64.78;100897.09;10359103;28;20065;-77
2022/04/12 01:36:37;;;;;;;7.07;3.40;;;;;;;6.32;66.13;100895.00;10372943;28;20076;-77
2022/04/12 01:41:38;;;;;;;4.45;2.15;;;;;;;6.28;65.60;100895.59;10374793;28;20064;-77
2022/04/12 01:46:44;;;;;;;7.35;2.92;;;;;;;6.30;65.12;100893.09;10378666;28;20140;-77
2022/04/12 01:51:44;;;;;;;6.97;2.20;;;;;;;6.34;66.92;100892.50;10426073;28;20484;-77
2022/04/12 01:56:45;;;;;;;7.88;2.53;;;;;;;6.35;66.72;100906.41;10414235;28;20064;-77
2022/04/12 02:01:45;;;;;;;9.50;2.65;;;;;;;6.36;67.52;100900.41;10439609;28;20082;-78
2022/04/12 02:06:46;;;;;;;7.03;2.83;;;;;;;6.41;67.25;100897.28;10402429;28;20080;-77
2022/04/12 02:11:46;;;;;;;3.38;2.25;;;;;;;6.39;67.82;100892.81;10424086;28;20446;-77
2022/04/12 02:16:48;;;;;;;7.30;4.65;;;;;;;6.26;68.63;100880.69;10391129;28;20044;-77
2022/04/12 02:21:48;;;;;;;7.38;2.80;;;;;;;6.27;67.37;100867.81;10412301;28;20436;-77
2022/04/12 02:26:49;;;;;;;6.10;3.83;;;;;;;6.38;65.75;100885.81;10394625;28;20052;-77
2022/04/12 02:31:49;;;;;;;6.15;2.60;;;;;;;6.20;67.88;100888.09;10411421;28;20127;-77
2022/04/12 02:36:50;;;;;;;7.35;2.88;;;;;;;6.07;69.00;100889.00;10416481;28;20111;-77
2022/04/12 02:41:50;;;;;;;6.47;2.90;;;;;;;5.97;69.50;100892.63;10418765;28;20044;-77
2022/04/12 02:46:51;;;;;;;6.75;2.92;;;;;;;5.92;69.70;100889.75;10416030;28;20045;-77
2022/04/12 02:51:51;;;;;;;5.80;3.88;;;;;;;5.97;70.54;100887.44;10432363;28;20033;-77
2022/04/12 02:56:52;;;;;;;7.00;3.47;;;;;;;6.12;70.30;100870.28;10412618;28;20041;-77
2022/04/12 03:01:52;;;;;;;7.53;2.92;;;;;;;6.04;70.70;100868.00;10404058;28;20057;-77
2022/04/12 03:06:53;;;;;;;8.10;3.38;;;;;;;6.08;70.32;100855.28;10412759;28;20030;-77
2022/04/12 03:11:53;;;;;;;8.30;2.70;;;;;;;6.13;71.46;100858.22;10409681;28;20084;-78
2022/04/12 03:16:54;;;;;;;11.25;4.43;;;;;;;6.12;70.80;100859.91;10428184;28;20374;-77
2022/04/12 03:21:54;;;;;;;5.95;3.05;;;;;;;6.00;71.73;100852.22;10389721;28;20048;-77
2022/04/12 03:26:55;;;;;;;8.60;2.80;;;;;;;5.78;71.50;100847.25;10434143;28;20175;-77
2022/04/12 03:31:55;;;;;;;5.03;3.38;;;;;;;5.44;72.92;100858.88;10409096;28;20064;-77
2022/04/12 03:36:56;;;;;;;10.02;3.65;;;;;;;5.32;74.02;100838.94;10404613;28;20067;-77
2022/04/12 03:41:56;;;;;;;8.10;3.65;;;;;;;5.20;72.38;100839.03;10443638;28;20051;-77
2022/04/12 03:46:57;;;;;;;5.57;4.10;;;;;;;4.93;73.69;100826.81;10406041;28;20037;-77
2022/04/12 03:51:57;;;;;;;7.55;3.88;;;;;;;4.83;73.97;100845.13;10441379;28;20048;-77
2022/04/12 03:56:58;;;;;;;9.52;3.35;;;;;;;4.66;74.34;100844.84;10418779;28;20091;-77
2022/04/12 04:01:59;;;;;;;5.97;3.33;;;;;;;4.43;74.79;100840.63;10414600;28;20058;-77
2022/04/12 04:06:59;;;;;;;10.48;4.78;;;;;;;4.31;75.15;100844.91;10411305;28;20041;-77
2022/04/12 04:12:03;;;;;;;6.70;3.53;;;;;;;4.03;76.26;100838.59;10431360;28;20116;-77
2022/04/12 04:17:04;;;;;;;6.47;4.53;;;;;;;4.16;76.76;100840.41;10433293;28;20430;-77
2022/04/12 04:22:04;;;;;;;8.43;3.40;;;;;;;3.97;78.04;100833.88;10426523;28;20036;-76
2022/04/12 04:27:05;;;;;;;11.95;4.32;;;;;;;4.11;78.30;100819.34;10419215;28;20052;-76
2022/04/12 04:32:06;;;;;;;9.05;4.93;;;;;;;4.44;76.29;100800.94;10395616;28;20036;-77
2022/04/12 04:37:07;;;;;;;10.48;4.60;;;;;;;4.64;74.22;100809.25;10409488;28;20029;-76
2022/04/12 04:42:07;;;;;;;6.03;4.65;;;;;;;4.69;74.39;100823.44;10431083;28;20056;-78
2022/04/12 04:47:08;;;;;;;8.57;4.60;;;;;;;4.65;74.17;100827.47;10377296;28;20045;-78
2022/04/12 04:52:08;;;;;;;8.50;4.38;;;;;;;4.52;75.34;100830.91;10397662;28;20034;-76
2022/04/12 04:57:09;;;;;;;5.95;4.05;;;;;;;4.28;75.28;100836.91;10374175;28;20060;-76
2022/04/12 05:02:09;;;;;;;9.13;5.38;;;;;;;4.19;76.12;100835.47;10370687;28;20113;-76
2022/04/12 05:07:10;;;;;;;7.82;3.83;;;;;;;4.07;76.10;100852.69;10370197;28;20038;-76
2022/04/12 05:12:10;;;;;;;5.28;3.83;;;;;;;3.90;77.52;100860.13;10369320;28;20116;-76
2022/04/12 05:17:11;;;;;;;8.57;5.43;;;;;;;3.87;77.64;100853.78;10385652;28;20037;-77
2022/04/12 05:22:11;;;;;;;5.53;4.22;;;;;;;4.08;78.28;100851.91;10349956;28;20173;-77
2022/04/12 05:27:12;;;;;;;9.20;4.90;;;;;;;4.21;78.16;100852.03;10385112;28;20088;-77
2022/04/12 05:32:13;;;;;;;6.30;4.43;;;;;;;4.70;77.98;100861.53;10369244;28;20038;-77
2022/04/12 05:37:13;;;;;;;8.25;5.60;;;;;;;5.35;75.00;100841.75;10356874;28;20061;-77
2022/04/12 05:42:14;;;;;;;18.00;4.93;;;;;;;5.67;72.66;100843.94;10385386;28;20884;-76
2022/04/12 05:47:14;;;;;;;10.50;5.70;;;;;;;6.33;71.37;100854.28;10346031;28;20565;-77
2022/04/12 05:52:15;;;;;;;7.25;3.90;;;;;;;7.42;68.41;100853.19;10366165;28;20037;-77
2022/04/12 05:57:15;;;;;;;7.82;3.90;;;;;;;8.44;64.68;100856.47;10341556;28;20030;-77
2022/04/12 06:02:18;;;;;;;8.55;4.50;;;;;;;9.51;58.83;100858.69;10377252;28;20029;-76
2022/04/12 06:07:18;;;;;;;7.88;3.65;;;;;;;11.21;55.57;100833.66;10372409;28;20392;-76
2022/04/12 06:12:19;;;;;;;5.50;3.15;;;;;;;13.12;50.28;100825.59;10389643;28;20060;-76
2022/04/12 06:17:19;;;;;;;11.20;4.10;;;;;;;14.14;45.99;100817.69;10401190;28;20069;-76
2022/04/12 06:22:20;;;;;;;11.05;4.55;;;;;;;14.36;45.28;100841.22;10373195;28;20546;-77
2022/04/12 06:27:33;;;;;;;6.22;4.32;;;;;;;15.99;41.50;100827.41;10373457;28;20038;-77
2022/04/12 06:32:34;;;;;;;7.00;3.80;;;;;;;16.63;40.40;100828.88;10381155;28;20474;-78
2022/04/12 06:37:35;;;;;;;7.82;4.05;;;;;;;16.80;39.79;100829.25;10372085;28;20057;-78
2022/04/12 06:42:35;;;;;;;6.38;3.90;;;;;;;17.30;39.39;100830.28;10353077;28;20030;-78
2022/04/12 06:47:36;;;;;;;5.85;3.78;;;;;;;17.32;38.67;100833.84;10410109;28;20456;-76
2022/04/12 06:52:37;;;;;;;5.80;3.63;;;;;;;18.09;36.90;100844.94;10398936;28;20044;-76
2022/04/12 06:57:37;;;;;;;9.87;3.87;;;;;;;18.41;36.36;100849.84;10410715;28;20037;-77
2022/04/12 07:02:38;;;;;;;6.07;2.90;;;;;;;17.96;36.54;100856.16;10414486;28;20148;-76
2022/04/12 07:07:39;;;;;;;9.15;3.25;;;;;;;17.61;37.78;100855.53;10448866;28;20036;-77
2022/04/12 07:12:40;;;;;;;7.27;3.10;;;;;;;16.76;39.51;100847.63;10465739;28;20032;-77
2022/04/12 07:17:40;;;;;;;6.47;3.20;;;;;;;16.99;38.90;100837.59;10447895;28;20056;-77
2022/04/12 07:22:41;;;;;;;7.10;2.67;;;;;;;17.79;37.61;100835.56;10455955;28;20063;-78
2022/04/12 07:27:41;;;;;;;8.40;2.78;;;;;;;19.42;35.36;100819.34;10449844;28;20433;-77
2022/04/12 07:32:42;;;;;;;5.37;3.80;;;;;;;19.39;34.78;100810.44;10471204;28;20485;-77
2022/04/12 07:37:43;;;;;;;4.20;2.60;;;;;;;19.10;35.03;100811.91;10466469;28;20029;-77
2022/04/12 07:42:44;;;;;;;6.80;3.03;;;;;;;19.74;34.98;100808.13;10460149;28;20036;-77
2022/04/12 07:47:44;;;;;;;7.03;2.70;;;;;;;20.82;32.82;100815.13;10482362;28;20079;-77
2022/04/12 07:52:45;;;;;;;4.83;2.37;;;;;;;20.73;33.11;100818.56;10479907;28;20127;-77
2022/04/12 07:57:45;;;;;;;7.80;2.97;;;;;;;20.45;34.21;100818.41;10447544;28;20033;-77
2022/04/12 08:02:46;;;;;;;5.43;1.93;;;;;;;20.64;34.22;100805.22;10415281;28;20058;-77
2022/04/12 08:07:49;;;;;;;4.57;2.53;;;;;;;22.30;34.65;100797.56;10417076;28;20037;-77
2022/04/12 08:12:52;;;;;;;7.97;2.58;;;;;;;23.07;29.90;100799.09;10458047;28;20032;-77
2022/04/12 08:17:53;;;;;;;6.80;3.42;;;;;;;21.27;31.76;100808.19;10420577;28;20389;-76
2022/04/12 08:22:53;;;;;;;6.30;3.30;;;;;;;21.13;32.98;100809.91;10415762;28;20072;-76
2022/04/12 08:27:54;;;;;;;7.57;3.03;;;;;;;22.17;33.37;100809.16;10401273;28;20127;-76
2022/04/12 08:32:54;;;;;;;8.33;3.73;;;;;;;22.46;31.56;100810.91;10434629;28;20022;-77
2022/04/12 08:37:55;;;;;;;15.17;4.00;;;;;;;23.08;31.13;100818.69;10427043;28;20056;-77
2022/04/12 08:42:55;;;;;;;5.80;2.60;;;;;;;23.63;30.33;100806.78;10421722;28;20056;-77
2022/04/12 08:47:56;;;;;;;8.77;4.20;;;;;;;23.75;28.60;100803.16;10414663;28;20036;-78
2022/04/12 08:52:56;;;;;;;9.33;3.67;;;;;;;22.66;32.44;100800.16;10483425;28;20128;-77
2022/04/12 08:57:57;;;;;;;6.93;3.63;;;;;;;23.02;29.34;100785.78;10474798;28;20145;-78
2022/04/12 09:02:59;;;;;;;8.80;2.80;;;;;;;22.68;30.30;100782.38;10469859;28;20500;-77
2022/04/12 09:07:59;;;;;;;7.82;2.97;;;;;;;23.51;30.35;100791.75;10394657;28;20037;-77
2022/04/12 09:13:18;;;;;;;5.73;3.13;;;;;;;24.00;28.22;100790.47;10405190;28;20048;-77
2022/04/12 09:18:41;;;;;;;5.47;3.08;;;;;;;22.30;30.72;100776.25;10425511;28;20525;-77
2022/04/12 09:23:49;;;;;;;5.25;2.30;;;;;;;22.71;31.04;100791.25;10445539;28;20388;-76
2022/04/12 09:28:51;;;;;;;5.32;2.45;;;;;;;24.04;28.60;100783.31;10422967;28;20509;-78
2022/04/12 09:33:53;;;;;;;8.32;4.22;;;;;;;23.26;31.29;100777.66;10432557;28;20060;-77
2022/04/12 09:38:57;;;;;;;5.22;2.05;;;;;;;24.59;28.89;100763.09;10437176;28;20377;-77
2022/04/12 09:44:08;;;;;;;6.82;2.13;;;;;;;23.79;29.27;100764.81;10443980;28;20124;-77
2022/04/12 09:49:09;;;;;;;4.22;1.88;;;;;;;23.09;28.92;100764.41;10428771;28;20099;-77
2022/04/12 09:54:21;;;;;;;6.13;3.00;;;;;;;24.65;29.81;100751.44;10411822;28;20055;-77
2022/04/12 09:59:21;;;;;;;;;;;;;;;26.98;26.98;100752.88;10413218;28;20434;-77
2022/04/12 10:04:21;;;;;;;9.93;4.37;;;;;;;24.07;29.08;100767.25;10446153;28;19970;-77
2022/04/12 10:09:22;;;;;;;6.43;2.40;;;;;;;24.04;28.46;100749.44;10400582;28;20403;-76
2022/04/12 10:14:22;;;;;;;5.97;3.57;;;;;;;25.94;27.22;100726.31;10419298;28;20029;-77
2022/04/12 10:19:23;;;;;;;5.17;2.53;;;;;;;27.43;25.91;100732.16;10423417;28;20048;-77
2022/04/12 10:24:24;;;;;;;11.43;3.33;;;;;;;25.45;28.63;100744.13;10410504;28;20520;-77
2022/04/12 10:29:24;;;;;;;13.87;2.90;;;;;;;26.19;26.57;100733.03;10394594;28;20032;-76
2022/04/12 10:34:25;;;;;;;4.40;2.90;;;;;;;26.80;27.02;100720.13;10411939;28;20116;-77
2022/04/12 10:39:29;;;;;;;7.80;3.27;;;;;;;26.55;27.73;100724.25;10464286;28;20135;-77
2022/04/12 10:44:36;;;;;;;4.40;2.33;;;;;;;28.01;24.33;100718.13;10444677;28;20382;-77
2022/04/12 10:49:37;;;;;;;4.50;2.20;;;;;;;27.09;25.51;100710.56;10441152;28;20044;-77
2022/04/12 10:54:37;;;;;;;8.57;3.30;;;;;;;27.03;28.34;100708.00;10455771;28;20071;-75
2022/04/12 10:59:39;;;;;;;3.43;2.30;;;;;;;25.88;27.08;100696.94;10443245;28;20152;-77
2022/04/12 11:04:39;;;;;;;;;;;;;;;26.77;26.37;100695.13;10479084;28;20361;-77
2022/04/12 11:10:06;;;;;;;4.35;1.95;;;;;;;26.90;25.32;100679.69;10437803;28;19920;-77
2022/04/12 11:15:28;;;;;;;6.20;3.13;;;;;;;25.44;27.35;100680.69;10421511;28;20044;-77
2022/04/12 11:20:29;;;;;;;9.43;2.85;;;;;;;25.25;27.42;100685.50;10416683;28;20025;-77
2022/04/12 11:25:29;;;;;;;9.40;2.43;;;;;;;25.05;27.44;100700.09;10417310;28;20484;-76
2022/04/12 11:30:30;;;;;;;3.37;2.00;;;;;;;24.67;28.75;100704.16;10408054;28;20029;-76
2022/04/12 11:35:31;;;;;;;8.13;2.50;;;;;;;25.81;28.94;100687.25;10440687;28;20024;-76
2022/04/12 11:40:31;;;;;;;7.70;3.07;;;;;;;24.82;27.73;100675.44;10438749;28;20024;-76
2022/04/12 11:45:32;;;;;;;4.10;2.03;;;;;;;23.73;29.43;100672.22;10453248;28;20041;-75
2022/04/12 11:50:34;;;;;;;7.17;3.30;;;;;;;24.50;28.25;100650.88;10431086;28;20052;-76
2022/04/12 11:55:38;;;;;;;7.85;2.75;;;;;;;23.91;29.98;100646.22;10401787;28;20040;-76
2022/04/12 12:00:39;;;;;;;12.70;2.45;;;;;;;24.52;29.85;100675.81;10434019;28;20041;-76
2022/04/12 12:05:39;;;;;;;8.47;2.60;;;;;;;26.02;28.08;100656.44;10435041;28;20384;-77
2022/04/12 12:10:42;;;;;;;4.27;2.77;;;;;;;26.27;27.16;100669.38;10418300;28;20041;-76
2022/04/12 12:15:44;;;;;;;7.00;2.00;;;;;;;25.82;29.21;100672.94;10418463;28;20033;-76
2022/04/12 12:20:46;;;;;;;3.85;2.70;;;;;;;26.26;28.18;100662.25;10450192;28;20029;-76
2022/04/12 12:25:46;;;;;;;5.75;3.20;;;;;;;27.65;25.74;100671.56;10407005;28;20518;-77
2022/04/12 12:31:00;;;;;;;6.93;3.77;;;;;;;28.50;26.40;100653.97;10457884;28;20064;-76
2022/04/12 12:36:00;;;;;;;8.07;2.72;;;;;;;28.34;25.60;100640.97;10452162;28;20059;-76
2022/04/12 12:41:01;;;;;;;5.00;2.93;;;;;;;28.04;27.75;100643.59;10453240;28;20060;-77
2022/04/12 12:46:05;;;;;;;9.87;4.30;;;;;;;28.22;27.88;100641.34;10423500;28;20065;-75
2022/04/12 12:51:06;;;;;;;7.30;3.95;;;;;;;27.40;29.57;100642.63;10473643;28;20037;-76
2022/04/12 12:56:17;;;;;;;7.70;2.70;;;;;;;27.18;27.62;100641.41;10481232;28;20087;-76
2022/04/12 13:01:18;;;;;;;3.90;2.37;;;;;;;27.33;27.58;100630.28;10430206;28;20032;-76
2022/04/12 13:06:20;;;;;;;;;;;;;;;27.92;24.98;100623.34;10454926;28;20040;-76
2022/04/12 13:11:22;;;;;;;3.83;2.33;;;;;;;27.15;27.74;100636.13;10440656;28;19928;-76
2022/04/12 13:16:23;;;;;;;6.43;3.45;;;;;;;27.54;26.79;100634.22;10448278;28;20578;-76
2022/04/12 13:21:25;;;;;;;6.03;3.05;;;;;;;27.57;26.69;100618.94;10458598;28;20123;-76
2022/04/12 13:26:25;;;;;;;6.28;3.25;;;;;;;27.51;27.15;100618.19;10465849;28;20037;-76
2022/04/12 13:31:25;;;;;;;3.90;1.93;;;;;;;27.80;25.46;100615.63;10475667;28;20476;-76
2022/04/12 13:36:26;;;;;;;4.30;2.67;;;;;;;27.38;26.14;100614.03;10461604;28;20105;-77
2022/04/12 13:41:26;;;;;;;7.77;1.83;;;;;;;27.89;26.32;100595.66;10439703;28;20064;-77
2022/04/12 13:46:27;;;;;;;5.23;1.13;;;;;;;27.72;23.84;100588.94;10420501;28;20076;-77
2022/04/12 13:51:28;;;;;;;5.23;1.70;;;;;;;28.41;24.20;100594.09;10492827;28;20037;-77
2022/04/12 13:56:29;;;;;;;3.17;2.20;;;;;;;28.32;24.10;100599.78;10465339;28;20190;-77
2022/04/12 14:01:30;;;;;;;3.00;1.77;;;;;;;28.50;24.78;100583.97;10452343;28;20195;-76
2022/04/12 14:06:30;;;;;;;2.63;1.37;;;;;;;28.71;23.94;100580.59;10459551;28;20128;-76
2022/04/12 14:11:31;;;;;;;4.40;1.30;;;;;;;28.79;24.05;100583.09;10439851;28;20034;-77
2022/04/12 14:16:31;;;;;;;2.77;1.40;;;;;;;28.70;25.11;100584.22;10415226;28;20477;-77
2022/04/12 14:21:32;;;;;;;4.73;1.63;;;;;;;27.82;25.69;100578.81;10436125;28;20096;-77
2022/04/12 14:26:34;;;;;;;2.90;1.63;;;;;;;28.00;25.11;100569.31;10416459;28;20128;-77
2022/04/12 14:31:34;;;;;;;3.58;1.73;;;;;;;28.61;24.88;100557.59;10491769;28;20032;-77
2022/04/12 14:36:35;;;;;;;3.50;1.63;;;;;;;27.63;24.09;100565.91;10455578;28;20033;-77
2022/04/12 14:41:36;;;;;;;7.67;1.30;;;;;;;27.00;25.04;100555.03;10414069;28;20416;-77
2022/04/12 14:46:36;;;;;;;1.93;1.10;;;;;;;26.79;26.18;100560.00;10445353;28;20056;-76
2022/04/12 14:51:37;;;;;;;3.20;1.43;;;;;;;26.78;25.94;100568.97;10435181;28;20378;-77
2022/04/12 14:56:37;;;;;;;2.87;1.47;;;;;;;26.12;25.88;100557.94;10451840;28;20384;-77
2022/04/12 15:01:41;;;;;;;3.60;1.17;;;;;;;25.73;27.49;100556.06;10425845;28;20035;-77
2022/04/12 15:06:41;;;;;;;4.75;1.85;;;;;;;25.56;27.22;100564.44;10451665;28;20396;-77
2022/04/12 15:11:42;;;;;;;4.23;1.70;;;;;;;25.55;26.81;100568.03;10443052;28;20036;-78
2022/04/12 15:16:43;;;;;;;2.53;1.30;;;;;;;25.51;27.28;100569.88;10389425;28;20380;-78
2022/04/12 15:21:43;;;;;;;4.77;1.40;;;;;;;24.86;28.00;100576.34;10405149;28;20506;-78
2022/04/12 15:26:44;;;;;;;3.17;1.40;;;;;;;24.42;29.94;100583.22;10399000;28;20044;-78
2022/04/12 15:31:44;;;;;;;3.03;1.27;;;;;;;23.99;30.20;100587.34;10481269;28;20154;-78
2022/04/12 15:36:45;;;;;;;5.53;2.07;;;;;;;23.78;30.46;100589.38;10433321;28;20025;-78
2022/04/12 15:41:46;;;;;;;4.10;1.70;;;;;;;23.70;31.13;100589.44;10436832;28;20056;-78
2022/04/12 15:46:46;;;;;;;3.77;1.30;;;;;;;23.77;32.79;100603.63;10421116;28;20532;-77
2022/04/12 15:51:47;;;;;;;6.27;2.93;;;;;;;23.71;31.79;100606.38;10417646;28;20480;-79
2022/04/12 15:56:50;;;;;;;4.00;1.80;;;;;;;23.45;31.29;100610.22;10432393;28;20086;-77
2022/04/12 16:01:53;;;;;;;8.52;1.70;;;;;;;23.06;31.76;100623.84;10439366;28;20036;-78
2022/04/12 16:06:56;;;;;;;4.30;1.95;;;;;;;22.98;33.66;100631.94;10427925;28;20032;-78
2022/04/12 16:11:56;;;;;;;4.95;2.08;;;;;;;22.61;34.34;100623.28;10457202;28;20033;-78
2022/04/12 16:16:57;;;;;;;4.73;3.10;;;;;;;22.37;34.67;100634.03;10411155;28;20033;-77
2022/04/12 16:21:57;;;;;;;10.23;2.80;;;;;;;22.10;34.58;100643.94;10471305;28;20031;-77
2022/04/12 16:26:58;;;;;;;8.53;3.93;;;;;;;21.94;35.86;100655.53;10426296;28;20036;-77
2022/04/12 16:31:59;;;;;;;7.90;3.53;;;;;;;21.74;35.31;100655.56;10438194;28;20155;-77
2022/04/12 16:36:59;;;;;;;14.93;7.13;;;;;;;21.52;36.55;100651.13;10452277;28;20128;-78
2022/04/12 16:42:01;;;;;;;8.30;3.77;;;;;;;21.28;37.30;100660.00;10444092;28;20151;-78
2022/04/12 16:47:02;;;;;;;5.78;2.13;;;;;;;21.10;37.84;100661.78;10471336;28;20051;-79
2022/04/12 16:52:02;;;;;;;7.60;1.93;;;;;;;20.88;37.57;100659.97;10441845;28;20060;-78
2022/04/12 16:57:03;;;;;;;4.80;2.40;;;;;;;20.71;37.52;100665.25;10420789;28;20041;-77
2022/04/12 17:02:04;;;;;;;3.00;1.45;;;;;;;20.54;39.91;100666.94;10470791;28;20036;-77
2022/04/12 17:07:05;;;;;;;7.25;2.55;;;;;;;20.34;38.87;100671.31;10462440;28;20039;-77
2022/04/12 17:12:06;;;;;;;6.82;2.60;;;;;;;20.24;38.72;100673.91;10454157;28;20047;-78
2022/04/12 17:17:06;;;;;;;8.75;2.05;;;;;;;20.03;38.56;100680.03;10469776;28;20037;-78
2022/04/12 17:22:07;;;;;;;5.00;1.80;;;;;;;19.92;39.19;100681.72;10458576;28;20373;-78
2022/04/12 17:27:07;;;;;;;3.72;1.65;;;;;;;19.69;39.67;100689.50;10471674;28;20553;-78
2022/04/12 17:32:08;;;;;;;3.65;1.73;;;;;;;19.38;41.42;100690.16;10484956;28;20111;-78
2022/04/12 17:37:09;;;;;;;6.32;2.33;;;;;;;19.02;42.52;100699.56;10424868;28;20072;-77
2022/04/12 17:42:10;;;;;;;5.80;1.73;;;;;;;18.71;41.95;100702.72;10451194;28;20421;-77
2022/04/12 17:47:10;;;;;;;4.65;1.90;;;;;;;18.46;43.33;100707.72;10465627;28;20052;-77
2022/04/12 17:52:11;;;;;;;6.00;1.90;;;;;;;18.01;45.18;100709.78;10452208;28;20079;-77
2022/04/12 17:57:11;;;;;;;3.47;1.60;;;;;;;17.68;46.89;100716.31;10433448;28;20122;-77
2022/04/12 18:02:12;;;;;;;9.00;2.10;;;;;;;17.28;47.25;100721.78;10450534;28;20083;-77
2022/04/12 18:07:12;;;;;;;6.38;1.67;;;;;;;17.02;48.09;100747.78;10436352;28;20060;-77
2022/04/12 18:12:13;;;;;;;8.93;2.05;;;;;;;16.73;49.21;100755.97;10451545;28;20063;-77
2022/04/12 18:17:13;;;;;;;6.50;2.22;;;;;;;16.67;50.29;100755.84;10436795;28;20110;-77
2022/04/12 18:22:14;;;;;;;7.50;3.33;;;;;;;16.43;49.71;100762.41;10453529;28;20473;-77
2022/04/12 18:27:16;;;;;;;17.83;3.50;;;;;;;16.31;50.87;100775.31;10432797;28;20033;-77
2022/04/12 18:32:17;;;;;;;7.00;2.30;;;;;;;16.09;51.26;100786.28;10437723;28;20029;-77
2022/04/12 18:37:17;;;;;;;7.82;2.15;;;;;;;15.87;51.88;100790.16;10456688;28;20067;-77
2022/04/12 18:42:19;;;;;;;6.60;2.10;;;;;;;15.75;52.36;100793.31;10494393;28;20064;-77
2022/04/12 18:47:20;;;;;;;9.95;1.85;;;;;;;15.83;50.89;100797.06;10436977;28;20889;-77
2022/04/12 18:52:21;;;;;;;5.50;3.03;;;;;;;15.73;52.14;100804.72;10469725;28;20029;-77
2022/04/12 18:57:24;;;;;;;8.60;2.07;;;;;;;15.46;52.64;100811.06;10455669;28;20132;-78
2022/04/12 19:02:27;;;;;;;10.93;2.95;;;;;;;15.35;53.39;100823.94;10489909;28;20055;-77
2022/04/12 19:07:28;;;;;;;4.78;1.90;;;;;;;15.19;53.37;100828.78;10459474;28;20060;-77
2022/04/12 19:12:29;;;;;;;5.57;1.65;;;;;;;15.02;54.17;100836.22;10477024;28;20531;-77
2022/04/12 19:17:29;;;;;;;6.03;1.50;;;;;;;15.06;54.49;100837.19;10450721;28;20025;-77
2022/04/12 19:22:31;;;;;;;4.75;2.63;;;;;;;14.83;55.08;100850.59;10483938;28;20068;-77
2022/04/12 19:27:32;;;;;;;6.30;1.90;;;;;;;14.58;55.30;100841.03;10491705;28;20052;-77
2022/04/12 19:32:32;;;;;;;4.47;1.70;;;;;;;14.43;55.92;100849.31;10464436;28;20119;-77
2022/04/12 19:37:33;;;;;;;8.38;1.90;;;;;;;14.26;56.96;100849.69;10460648;28;20065;-77
2022/04/12 19:42:33;;;;;;;5.68;1.80;;;;;;;14.05;57.81;100857.78;10445318;28;20035;-77
2022/04/12 19:47:35;;;;;;;7.00;1.90;;;;;;;13.94;59.04;100860.94;10444518;28;20079;-77
2022/04/12 19:52:41;;;;;;;15.93;1.93;;;;;;;13.77;59.67;100864.75;10439958;28;20044;-77
2022/04/12 19:57:42;;;;;;;5.70;1.60;;;;;;;13.60;60.39;100867.69;10436014;28;20143;-77
2022/04/12 20:02:42;;;;;;;7.53;2.03;;;;;;;13.53;60.00;100875.28;10453697;28;20059;-76
2022/04/12 20:07:43;;;;;;;7.85;3.00;;;;;;;13.41;60.12;100866.06;10448780;28;20128;-77
2022/04/12 20:12:43;;;;;;;5.40;1.67;;;;;;;13.19;61.57;100869.66;10440952;28;20159;-77
2022/04/12 20:17:44;;;;;;;5.03;1.92;;;;;;;13.04;61.88;100878.78;10441429;28;20036;-76
2022/04/12 20:22:45;;;;;;;4.22;2.08;;;;;;;13.02;61.57;100879.53;10471314;28;20040;-76
2022/04/12 20:27:45;;;;;;;6.85;1.90;;;;;;;12.91;62.63;100871.25;10471042;28;20037;-75
2022/04/12 20:32:46;;;;;;;4.60;1.95;;;;;;;12.90;62.12;100879.97;10440223;28;20029;-76
2022/04/12 20:37:46;;;;;;;10.65;3.53;;;;;;;12.86;61.66;100891.19;10450452;28;20086;-76
2022/04/12 20:42:47;;;;;;;9.93;3.63;;;;;;;12.83;62.25;100891.97;10480081;28;20071;-76
2022/04/12 20:47:48;;;;;;;5.60;2.60;;;;;;;12.86;61.78;100883.31;10470252;28;20142;-76
2022/04/12 20:52:48;;;;;;;6.18;1.85;;;;;;;12.90;61.43;100886.09;10439177;28;20049;-76
2022/04/12 20:57:50;;;;;;;13.93;3.67;;;;;;;12.89;61.32;100891.31;10456789;28;20577;-76
2022/04/12 21:02:51;;;;;;;5.95;2.20;;;;;;;12.84;62.68;100900.75;10481007;28;20032;-76
2022/04/12 21:07:53;;;;;;;5.72;1.90;;;;;;;12.82;62.24;100900.69;10471720;28;20118;-76
2022/04/12 21:12:54;;;;;;;3.25;1.90;;;;;;;12.76;62.67;100892.56;10446861;28;20028;-76
2022/04/12 21:17:54;;;;;;;7.88;2.80;;;;;;;12.73;63.54;100900.31;10467582;28;20088;-76
2022/04/12 21:22:55;;;;;;;7.65;2.35;;;;;;;12.72;62.44;100903.78;10439328;28;20109;-76
2022/04/12 21:27:55;;;;;;;6.05;1.67;;;;;;;12.74;61.92;100912.59;10481799;28;20060;-76
2022/04/12 21:32:56;;;;;;;6.68;2.15;;;;;;;12.76;61.67;100906.59;10496042;28;20064;-76
2022/04/12 21:37:56;;;;;;;6.95;2.15;;;;;;;12.79;61.34;100913.69;10465162;28;20064;-75
2022/04/12 21:42:57;;;;;;;11.80;2.53;;;;;;;12.81;61.71;100916.38;10455544;28;20053;-76
2022/04/12 21:47:57;;;;;;;4.55;1.75;;;;;;;12.73;62.32;100923.94;10450767;28;20048;-76
2022/04/12 21:52:58;;;;;;;3.67;1.90;;;;;;;12.67;62.17;100923.72;10473577;28;20076;-76
2022/04/12 21:58:05;;;;;;;9.55;2.55;;;;;;;12.68;62.05;100934.28;10448024;28;20052;-76
2022/04/12 22:03:05;;;;;;;10.02;2.25;;;;;;;12.72;62.08;100936.19;10495672;28;20403;-76
2022/04/12 22:08:07;;;;;;;4.03;2.25;;;;;;;12.70;62.09;100945.75;10463914;28;20037;-76
2022/04/12 22:13:07;;;;;;;11.40;3.15;;;;;;;12.72;62.14;100943.16;10419450;28;20037;-76
2022/04/12 22:18:08;;;;;;;6.13;2.00;;;;;;;12.70;62.17;100944.84;10460040;28;20025;-76
2022/04/12 22:23:08;;;;;;;6.13;2.63;;;;;;;12.67;62.33;100949.97;10460454;28;20036;-76
2022/04/12 22:28:09;;;;;;;9.70;2.38;;;;;;;12.63;62.27;100955.09;10431263;28;20065;-76
2022/04/12 22:33:10;;;;;;;9.90;3.33;;;;;;;12.51;63.13;100959.84;10434751;28;20024;-76
2022/04/12 22:38:10;;;;;;;6.03;2.00;;;;;;;12.39;63.31;100960.25;10450233;28;20068;-76
2022/04/12 22:43:11;;;;;;;8.27;2.75;;;;;;;12.30;64.14;100957.22;10474667;28;20496;-76
2022/04/12 22:48:11;;;;;;;8.18;2.00;;;;;;;12.19;64.19;100954.13;10466948;28;20075;-76
2022/04/12 22:53:12;;;;;;;6.50;2.05;;;;;;;12.08;64.70;100958.03;10478320;28;20075;-76
2022/04/12 22:58:12;;;;;;;5.53;2.00;;;;;;;12.02;64.72;100958.69;10463468;28;20052;-76
2022/04/12 23:03:13;;;;;;;4.90;2.50;;;;;;;12.03;65.17;100963.09;10452780;28;20064;-76
2022/04/12 23:08:13;;;;;;;7.15;2.92;;;;;;;12.01;64.37;100963.00;10468742;28;20128;-76